Hlavní strana
METAR-TAF:

METAR-TAF

Letiště :

Letiště Vratislav

Vratislav, Polsko

zeměpisná šířka: 51-06N, zeměpisná délka: 016-53E, výška: 120 m

Aktuální stav počasí

Zpráva byla vytvořena před 12 minutami, v 11:00 UTC
Východní vítr 8 kt, proměnlivý mezi severoseverovýchodním a východojihovýchodním
Teplota 23°C
Vlhkost vzduchu 44%
Tlak 1020 hPa
Viditelnost 10 km a více
Žádná oblačnost pod 1500 m, nevyskytují se cumulonimby.

METAR: EPWR 251100Z 08008KT 030V120 CAVOK 23/10 Q1020

Čas: 13:12 (11:12 UTC)

Předpověď počasí

Zpráva byla vytvořena před 34 minutami, v 10:38 UTC
Předpověď platná od 25 v 10 UTC do 26 v 09 UTC
Východoseverovýchodní vítr 8 kt
Viditelnost 10 km a více
Polojasno ve výšce 4000 ft
Dočasný
od 25 v 10 UTC do 25 v 21 UTC
vítr z různých směrů 20 kt s nárazy do 38 kt
Viditelnost: 2000 m
Oblačno až skoro zataženo ve výšce 1400 ft, Cumulonimbus.
bouřka, déšť

TAF: EPWR 251038Z 2510/2609 07008KT 9999 SCT040 TEMPO 2510/2521 VRB20G38KT 2000 TSRA BKN014CB

Stav a předpovědi počasí z více než 4 000 letišť (zprávy METAR a TAF).

Červené a žluté tečky na mapě představují dostupné meteorologické stanice.

Když kurzor umístíte na tečku, zobrazí se název stanice.

Pak kliknutím zobrazíte stav a předpověď počasí.

Chcete-li změnit mapu, kliknutím na zelené tlačítko se znaménkem +mapu přiblížíte, kliknutím na zelené tlačítko se znaménkem – mapu oddálíte a kliknutím na zelené šipky přejdete na sousední mapy.


METAR-TAF: